createdAt,value
2018-09-23T00:01:13.323Z,1.00
2018-09-23T00:06:16.857Z,1.20
2018-09-23T00:11:20.218Z,1.23
2018-09-23T00:16:23.643Z,1.20
2018-09-23T00:21:27.025Z,1.27
2018-09-23T00:26:30.719Z,1.10
2018-09-23T00:31:34.717Z,1.00
2018-09-23T00:36:38.184Z,1.00
2018-09-23T00:41:41.555Z,1.17
2018-09-23T00:46:44.931Z,1.35
2018-09-23T00:51:48.278Z,1.10
2018-09-23T00:56:51.632Z,1.07
2018-09-23T01:01:55.069Z,1.27
2018-09-23T01:06:58.424Z,1.50
2018-09-23T01:12:01.800Z,1.30
2018-09-23T01:17:05.276Z,1.20
2018-09-23T01:22:08.656Z,1.53
2018-09-23T01:27:12.055Z,1.20
2018-09-23T01:32:15.435Z,1.20
2018-09-23T01:37:19.581Z,1.30
2018-09-23T01:42:22.943Z,1.07
2018-09-23T01:47:26.368Z,1.17
2018-09-23T01:52:29.728Z,1.20
2018-09-23T01:57:33.072Z,1.30
2018-09-23T02:02:37.926Z,1.20
2018-09-23T02:07:41.561Z,1.30
2018-09-23T02:12:44.926Z,1.10
2018-09-23T02:17:48.395Z,1.27
2018-09-23T02:22:51.849Z,1.20
2018-09-23T02:27:55.219Z,1.20
2018-09-23T02:32:58.734Z,1.37
2018-09-23T02:38:02.456Z,1.27
2018-09-23T02:43:05.805Z,1.57
2018-09-23T02:48:09.292Z,1.40
2018-09-23T02:53:12.712Z,1.40
2018-09-23T02:58:16.072Z,1.40
2018-09-23T03:03:19.409Z,1.60
2018-09-23T03:08:22.838Z,1.37
2018-09-23T03:13:26.371Z,1.73
2018-09-23T03:18:29.784Z,1.57
2018-09-23T03:23:33.138Z,1.62
2018-09-23T03:28:36.545Z,1.33
2018-09-23T03:33:40.207Z,1.40
2018-09-23T03:38:43.588Z,1.53
2018-09-23T03:43:46.919Z,1.60
2018-09-23T03:48:50.357Z,1.60
2018-09-23T03:53:53.736Z,1.40
2018-09-23T03:58:57.091Z,1.30
2018-09-23T04:04:00.472Z,1.60
2018-09-23T04:09:04.633Z,1.53
2018-09-23T04:14:08.076Z,1.40
2018-09-23T04:19:11.453Z,1.60
2018-09-23T04:24:15.226Z,1.60
2018-09-23T04:29:18.882Z,1.43
2018-09-23T04:34:22.243Z,1.50
2018-09-23T04:39:25.592Z,1.57
2018-09-23T04:44:28.952Z,1.40
2018-09-23T04:49:32.266Z,1.30
2018-09-23T04:54:35.590Z,1.50
2018-09-23T04:59:38.986Z,1.57
2018-09-23T05:04:42.359Z,1.23
2018-09-23T05:09:45.756Z,1.60
2018-09-23T05:14:49.437Z,1.60
2018-09-23T05:19:52.795Z,1.30
2018-09-23T05:24:56.364Z,1.40
2018-09-23T05:29:59.938Z,1.23
2018-09-23T05:35:03.289Z,1.20
2018-09-23T05:40:07.562Z,1.20
2018-09-23T05:45:11.326Z,1.20
2018-09-23T05:50:14.711Z,1.37
2018-09-23T05:55:18.155Z,1.17
2018-09-23T06:00:21.593Z,1.23
2018-09-23T06:05:24.942Z,1.33
2018-09-23T06:10:28.317Z,1.30
2018-09-23T06:15:31.703Z,1.40
2018-09-23T06:20:35.068Z,1.67
2018-09-23T06:25:38.438Z,1.20
2018-09-23T06:30:41.877Z,1.77
2018-09-23T06:35:45.323Z,1.20
2018-09-23T06:40:48.683Z,1.53
2018-09-23T06:45:52.095Z,1.60
2018-09-23T06:50:55.481Z,1.70
2018-09-23T06:55:58.840Z,1.10
2018-09-23T07:01:02.172Z,1.70
2018-09-23T07:06:05.676Z,1.30
2018-09-23T07:11:09.068Z,1.32
2018-09-23T07:16:12.511Z,1.60
2018-09-23T07:21:15.907Z,1.67
2018-09-23T07:26:19.492Z,1.30
2018-09-23T07:31:23.567Z,1.50
2018-09-23T07:36:26.938Z,1.27
2018-09-23T07:41:30.391Z,1.20
2018-09-23T07:46:33.788Z,1.20
2018-09-23T07:51:37.516Z,1.40
2018-09-23T07:56:41.043Z,1.20
2018-09-23T08:01:44.603Z,1.40
2018-09-23T08:06:47.973Z,1.10
2018-09-23T08:11:51.352Z,1.67
2018-09-23T08:16:54.728Z,1.67
2018-09-23T08:21:58.067Z,1.40
2018-09-23T08:27:01.638Z,1.20
2018-09-23T08:32:05.049Z,1.37
2018-09-23T08:37:08.506Z,1.23
2018-09-23T08:42:12.665Z,1.30
2018-09-23T08:47:16.870Z,1.40
2018-09-23T08:52:20.360Z,1.20
2018-09-23T08:57:23.722Z,1.37
2018-09-23T09:02:27.063Z,1.43
2018-09-23T09:07:30.448Z,1.30
2018-09-23T09:12:33.807Z,1.37
2018-09-23T09:17:37.728Z,1.43
2018-09-23T09:22:41.097Z,1.50
2018-09-23T09:27:44.439Z,1.20
2018-09-23T09:32:47.783Z,1.33
2018-09-23T09:37:51.125Z,1.50
2018-09-23T09:42:54.459Z,1.33
2018-09-23T09:47:57.905Z,1.10
2018-09-23T09:53:01.263Z,1.43
2018-09-23T09:58:04.633Z,1.63
2018-09-23T10:03:07.999Z,1.40
2018-09-23T10:08:11.430Z,1.50
2018-09-23T10:13:14.869Z,1.40
2018-09-23T10:18:18.290Z,1.67
2018-09-23T10:23:21.792Z,1.83
2018-09-23T10:28:25.060Z,1.63
2018-09-23T10:33:29.041Z,1.50
2018-09-23T10:38:32.457Z,1.60
2018-09-23T10:43:35.971Z,1.60
2018-09-23T10:48:39.357Z,1.80
2018-09-23T10:53:42.715Z,1.50
2018-09-23T10:58:46.043Z,2.00
2018-09-23T11:03:49.882Z,1.60
2018-09-23T11:08:53.195Z,1.87
2018-09-23T11:13:56.551Z,2.50
2018-09-23T11:18:59.988Z,2.60
2018-09-23T11:24:03.367Z,2.97
2018-09-23T11:29:07.384Z,2.90
2018-09-23T11:34:10.811Z,2.80
2018-09-23T11:39:14.867Z,2.60
2018-09-23T11:44:18.187Z,2.50
2018-09-23T11:49:21.560Z,2.50
2018-09-23T11:54:24.870Z,2.53
2018-09-23T11:59:28.242Z,2.60
2018-09-23T12:04:31.685Z,2.47
2018-09-23T12:09:35.145Z,3.20
2018-09-23T12:14:38.579Z,2.87
2018-09-23T12:19:42.139Z,2.70
2018-09-23T12:24:45.591Z,2.23
2018-09-23T12:29:49.219Z,3.10
2018-09-23T12:34:53.214Z,2.67
2018-09-23T12:39:56.690Z,2.70
2018-09-23T12:45:00.140Z,2.70
2018-09-23T12:50:03.660Z,2.33
2018-09-23T12:55:07.084Z,2.30
2018-09-23T13:00:10.481Z,2.13
2018-09-23T13:05:14.144Z,1.97
2018-09-23T13:10:17.481Z,1.90
2018-09-23T13:15:21.512Z,1.87
2018-09-23T13:20:24.874Z,1.83
2018-09-23T13:25:28.307Z,1.70
2018-09-23T13:30:31.680Z,1.77
2018-09-23T13:35:35.087Z,1.40
2018-09-23T13:40:38.858Z,1.37
2018-09-23T13:45:42.220Z,1.40
2018-09-23T13:50:45.571Z,1.40
2018-09-23T13:55:48.974Z,1.47
2018-09-23T14:00:52.351Z,1.57
2018-09-23T14:05:55.954Z,1.60
2018-09-23T14:10:59.316Z,1.60
2018-09-23T14:16:02.739Z,1.40
2018-09-23T14:21:06.171Z,1.33
2018-09-23T14:26:09.693Z,1.33
2018-09-23T14:31:13.088Z,1.40
2018-09-23T14:36:16.628Z,1.30
2018-09-23T14:41:20.008Z,1.30
2018-09-23T14:46:23.456Z,1.30
2018-09-23T14:51:26.843Z,1.00
2018-09-23T14:56:31.123Z,1.27
2018-09-23T15:01:35.210Z,1.00
2018-09-23T15:06:38.564Z,1.03
2018-09-23T15:11:41.890Z,1.20
2018-09-23T15:16:45.311Z,1.37
2018-09-23T15:21:48.714Z,1.53
2018-09-23T15:26:52.052Z,1.57
2018-09-23T15:31:55.431Z,1.83
2018-09-23T15:36:58.891Z,1.67
2018-09-23T15:42:02.336Z,1.73
2018-09-23T15:47:06.051Z,2.03
2018-09-23T15:52:09.574Z,2.20
2018-09-23T15:57:13.010Z,1.90
2018-09-23T16:02:16.342Z,2.07
2018-09-23T16:07:19.692Z,2.10
2018-09-23T16:12:23.046Z,2.67
2018-09-23T16:17:26.434Z,1.40
2018-09-23T16:22:29.969Z,1.30
2018-09-23T16:27:33.367Z,1.20
2018-09-23T16:32:36.826Z,1.07
2018-09-23T16:37:40.182Z,1.20
2018-09-23T16:42:43.719Z,0.80
2018-09-23T16:47:47.122Z,1.40
2018-09-23T16:52:50.445Z,0.80
2018-09-23T16:57:53.839Z,0.67
2018-09-23T17:02:58.440Z,0.90
2018-09-23T17:08:01.808Z,1.00
2018-09-23T17:13:05.166Z,0.90
2018-09-23T17:18:09.000Z,1.00
2018-09-23T17:23:12.365Z,1.00
2018-09-23T17:28:15.766Z,1.10
2018-09-23T17:33:19.194Z,1.30
2018-09-23T17:38:22.577Z,1.33
2018-09-23T17:43:26.043Z,1.37
2018-09-23T17:48:29.595Z,1.37
2018-09-23T17:53:32.962Z,1.27
2018-09-23T17:58:36.484Z,1.07
2018-09-23T18:03:39.833Z,1.43
2018-09-23T18:08:43.172Z,1.63
2018-09-23T18:13:46.515Z,1.90
2018-09-23T18:18:50.024Z,2.47
2018-09-23T18:23:53.417Z,1.53
2018-09-23T18:28:56.772Z,1.40
2018-09-23T18:34:00.280Z,1.00
2018-09-23T18:39:04.618Z,0.77
2018-09-23T18:44:08.275Z,0.70
2018-09-23T18:49:11.904Z,0.70
2018-09-23T18:54:20.704Z,0.80
2018-09-23T18:59:24.192Z,1.00
2018-09-23T19:04:27.548Z,0.80
2018-09-23T19:09:30.915Z,1.00
2018-09-23T19:14:34.562Z,0.90
2018-09-23T19:19:43.300Z,1.07
2018-09-23T19:24:46.681Z,0.80
2018-09-23T19:29:50.217Z,0.60
2018-09-23T19:34:53.701Z,0.80
2018-09-23T19:39:57.162Z,0.60
2018-09-23T19:45:00.528Z,0.60
2018-09-23T19:50:04.168Z,0.70
2018-09-23T19:55:07.529Z,0.60
2018-09-23T20:00:11.330Z,0.60
2018-09-23T20:05:14.671Z,0.60
2018-09-23T20:10:18.160Z,0.77
2018-09-23T20:15:21.573Z,0.70
2018-09-23T20:20:24.979Z,0.67
2018-09-23T20:25:28.351Z,0.70
2018-09-23T20:30:31.683Z,0.77
2018-09-23T20:35:35.125Z,0.87
2018-09-23T20:40:38.716Z,1.00
2018-09-23T20:45:42.102Z,1.10
2018-09-23T20:50:45.580Z,0.90
2018-09-23T20:55:49.008Z,0.80
2018-09-23T21:00:52.572Z,1.20
2018-09-23T21:05:56.623Z,1.20
2018-09-23T21:11:00.128Z,1.10
2018-09-23T21:16:03.879Z,1.40
2018-09-23T21:21:07.414Z,1.30
2018-09-23T21:26:10.900Z,1.23
2018-09-23T21:31:14.954Z,1.33
2018-09-23T21:36:18.573Z,1.20
2018-09-23T21:41:21.935Z,1.27
2018-09-23T21:46:25.283Z,1.30
2018-09-23T21:51:28.624Z,1.47
2018-09-23T21:56:32.006Z,1.43
2018-09-23T22:01:35.395Z,1.27
2018-09-23T22:06:38.838Z,1.50
2018-09-23T22:11:42.219Z,1.47
2018-09-23T22:16:45.595Z,1.30
2018-09-23T22:21:49.013Z,1.40
2018-09-23T22:26:52.334Z,1.50
2018-09-23T22:31:55.680Z,1.60
2018-09-23T22:36:59.728Z,1.57
2018-09-23T22:42:03.386Z,1.70
2018-09-23T22:47:07.186Z,1.70
2018-09-23T22:52:10.511Z,1.97
2018-09-23T22:57:13.859Z,1.60
2018-09-23T23:02:18.089Z,1.70
2018-09-23T23:07:21.473Z,1.43
2018-09-23T23:12:24.864Z,1.30
2018-09-23T23:17:28.581Z,1.50
2018-09-23T23:22:32.054Z,1.70
2018-09-23T23:27:35.427Z,1.50
2018-09-23T23:32:38.781Z,1.47
2018-09-23T23:37:43.068Z,1.50
2018-09-23T23:42:46.418Z,1.40
2018-09-23T23:47:49.883Z,1.37
2018-09-23T23:52:53.470Z,1.80
2018-09-23T23:57:56.818Z,1.43
